Time;durP1;ratioP1;P1;durP2;ratioP2;P2;SDS_P1;SDS_P2;PMS_P1;PMS_P2;Temp;Humidity;BMP_temperature;BMP_pressure;BME280_temperature;BME280_humidity;BME280_pressure;Samples;Min_cycle;Max_cycle;Signal;HPM_P1;HPM_P2
2021/12/12 00:00:03;;;;;;;9.25;4.40;;;;;;;-4.69;98.62;101901.75;5034752;28;20045;-74
2021/12/12 00:02:45;;;;;;;6.40;3.92;;;;;;;-4.75;98.49;101892.31;5034988;28;20049;-68
2021/12/12 00:05:13;;;;;;;5.78;2.85;;;;;;;-4.68;98.64;101896.69;5035498;28;20045;-66
2021/12/12 00:07:41;;;;;;;3.17;2.10;;;;;;;-4.69;98.93;101902.59;5035691;28;20049;-64
2021/12/12 00:10:13;;;;;;;4.85;3.35;;;;;;;-4.71;98.86;101901.69;5035039;28;20585;-68
2021/12/12 00:12:46;;;;;;;4.20;3.17;;;;;;;-4.75;99.27;101902.47;5034907;28;20053;-71
2021/12/12 00:15:17;;;;;;;8.85;3.80;;;;;;;-4.74;99.29;101901.63;5035518;28;20051;-64
2021/12/12 00:17:45;;;;;;;5.50;4.05;;;;;;;-4.74;99.12;101899.09;5035468;28;20045;-68
2021/12/12 00:20:16;;;;;;;11.57;5.55;;;;;;;-4.77;99.27;101896.47;5035239;28;20116;-64
2021/12/12 00:22:44;;;;;;;8.93;4.88;;;;;;;-4.66;99.00;101894.22;5035052;28;20049;-70
2021/12/12 00:25:12;;;;;;;7.65;4.80;;;;;;;-4.60;98.61;101884.19;5034045;28;20046;-65
2021/12/12 00:27:39;;;;;;;8.25;4.75;;;;;;;-4.62;98.91;101896.03;5033763;28;20049;-67
2021/12/12 00:30:10;;;;;;;8.15;4.75;;;;;;;-4.54;98.76;101893.69;5033401;28;20144;-64
2021/12/12 00:32:39;;;;;;;7.25;4.28;;;;;;;-4.56;98.51;101897.84;5034639;28;20128;-66
2021/12/12 00:35:10;;;;;;;5.68;3.72;;;;;;;-4.53;98.72;101895.38;5034180;28;20578;-66
2021/12/12 00:37:37;;;;;;;7.45;4.28;;;;;;;-4.52;98.10;101894.53;5034565;28;20574;-65
2021/12/12 00:40:07;;;;;;;;;;;;;;;-4.52;98.50;101892.88;5035108;28;20045;-65
2021/12/12 00:42:37;;;;;;;8.50;3.65;;;;;;;-4.63;98.38;101881.56;5033388;28;20367;-66
2021/12/12 00:45:10;;;;;;;7.35;4.35;;;;;;;-4.74;99.40;101885.53;5034284;28;20103;-69
2021/12/12 00:47:38;;;;;;;8.13;4.32;;;;;;;-4.56;98.75;101887.69;5034395;28;20149;-71
2021/12/12 00:50:08;;;;;;;8.13;4.50;;;;;;;-4.55;98.10;101889.41;5034399;28;20140;-73
2021/12/12 00:52:35;;;;;;;7.90;4.32;;;;;;;-4.55;98.53;101889.41;5034455;28;20168;-74
2021/12/12 00:55:04;;;;;;;6.70;3.92;;;;;;;-4.51;98.15;101891.19;5033858;28;20055;-74
2021/12/12 00:57:31;;;;;;;7.88;4.63;;;;;;;-4.63;98.42;101882.44;5033936;28;20140;-71
2021/12/12 00:59:59;;;;;;;7.15;3.95;;;;;;;-4.47;98.11;101891.31;5033835;28;20088;-69
2021/12/12 01:02:30;;;;;;;7.93;4.32;;;;;;;-4.57;97.90;101893.56;5034312;28;20103;-65
2021/12/12 01:05:01;;;;;;;7.75;4.50;;;;;;;-4.60;98.72;101889.28;5034065;28;20045;-74
2021/12/12 01:07:32;;;;;;;8.98;4.65;;;;;;;-4.64;98.22;101884.94;5034170;28;20107;-68
2021/12/12 01:10:04;;;;;;;10.10;4.57;;;;;;;-4.47;98.38;101885.34;5033882;28;20046;-68
2021/12/12 01:12:36;;;;;;;7.13;4.25;;;;;;;-4.53;98.44;101885.22;5033741;28;20240;-66
2021/12/12 01:15:12;;;;;;;6.93;4.22;;;;;;;-4.46;98.00;101887.09;5033689;28;20132;-73
2021/12/12 01:17:44;;;;;;;6.80;3.53;;;;;;;-4.54;98.20;101886.91;5034015;28;20132;-69
2021/12/12 01:20:19;;;;;;;4.20;2.97;;;;;;;-4.52;97.69;101881.84;5033674;28;20380;-68
2021/12/12 01:22:49;;;;;;;10.18;5.07;;;;;;;-4.56;98.01;101877.53;5033968;28;20111;-64
2021/12/12 01:25:22;;;;;;;6.22;3.58;;;;;;;-4.54;98.07;101891.13;5034090;28;20137;-73
2021/12/12 01:27:49;;;;;;;6.00;3.75;;;;;;;-4.49;97.73;101885.34;5033954;28;20144;-72
2021/12/12 01:30:18;;;;;;;10.68;4.70;;;;;;;-4.56;97.81;101868.22;5033745;28;20132;-65
2021/12/12 01:32:48;;;;;;;7.50;3.80;;;;;;;-4.49;97.74;101882.78;5033714;28;20056;-64
2021/12/12 01:35:18;;;;;;;7.47;4.20;;;;;;;-4.58;97.65;101874.09;5033466;28;20099;-72
2021/12/12 01:38:50;;;;;;;7.80;4.53;;;;;;;-4.46;98.27;101869.31;5033813;28;20056;-70
2021/12/12 01:40:42;;;;;;;8.48;3.75;;;;;;;-4.41;97.97;101872.81;5044051;22;20068;-71
2021/12/12 01:43:19;;;;;;;7.55;4.28;;;;;;;-4.42;97.77;101871.09;5033199;28;20136;-70
2021/12/12 01:45:48;;;;;;;7.78;4.10;;;;;;;-4.51;98.02;101865.81;5032669;28;20056;-71
2021/12/12 01:48:22;;;;;;;6.28;3.30;;;;;;;-4.50;97.70;101863.28;5032684;28;20475;-71
2021/12/12 01:50:52;;;;;;;4.70;3.00;;;;;;;-4.45;98.14;101865.94;5033261;28;20073;-71
2021/12/12 01:53:22;;;;;;;6.75;3.95;;;;;;;-4.51;97.72;101858.19;5032949;28;20563;-71
2021/12/12 01:55:54;;;;;;;6.63;4.10;;;;;;;-4.52;98.19;101864.06;5033197;28;20076;-69
2021/12/12 01:58:29;;;;;;;7.00;4.22;;;;;;;-4.50;97.83;101862.44;5033268;28;20452;-73
2021/12/12 02:01:01;;;;;;;6.10;3.85;;;;;;;-4.47;97.74;101863.38;5032787;28;20470;-69
2021/12/12 02:03:33;;;;;;;5.78;3.13;;;;;;;-4.51;97.72;101856.50;5032947;28;20460;-71
2021/12/12 02:06:01;;;;;;;9.00;4.70;;;;;;;-4.54;97.79;101861.50;5032924;28;20132;-70
2021/12/12 02:08:32;;;;;;;4.55;3.42;;;;;;;-4.54;97.81;101864.03;5032883;28;20052;-69
2021/12/12 02:11:04;;;;;;;9.10;4.78;;;;;;;-4.61;98.20;101857.94;5033064;28;20137;-70
2021/12/12 02:13:37;;;;;;;6.95;3.78;;;;;;;-4.53;98.08;101864.91;5032739;28;20048;-71
2021/12/12 02:16:05;;;;;;;4.65;2.90;;;;;;;-4.57;98.39;101858.00;5032678;28;20056;-71
2021/12/12 02:18:38;;;;;;;5.55;3.65;;;;;;;-4.53;98.02;101858.13;5032688;28;20132;-70
2021/12/12 02:21:14;;;;;;;7.43;4.40;;;;;;;-4.61;98.49;101850.31;5032543;28;20050;-70
2021/12/12 02:24:16;;;;;;;7.50;4.50;;;;;;;-4.57;98.06;101848.72;5032699;28;20049;-70
2021/12/12 02:35:21;;;;;;;7.03;3.67;;;;;;;-4.52;97.65;101859.88;5032672;28;20103;-70
2021/12/12 02:37:49;;;;;;;6.93;4.10;;;;;;;-4.53;97.59;101859.81;5032054;28;20128;-70
2021/12/12 02:40:23;;;;;;;5.25;3.35;;;;;;;-4.58;98.00;101867.31;5053947;22;20140;-65
2021/12/12 02:42:51;;;;;;;4.78;3.05;;;;;;;-4.60;97.87;101864.75;5052379;28;20045;-67
2021/12/12 02:45:20;;;;;;;6.78;4.05;;;;;;;-4.62;97.86;101868.94;5052001;28;20044;-67
2021/12/12 02:47:57;;;;;;;8.68;4.65;;;;;;;-4.63;98.28;101866.34;5052068;28;20060;-68
2021/12/12 02:50:27;;;;;;;7.80;3.58;;;;;;;-4.64;98.13;101865.50;5052144;28;20049;-65
2021/12/12 02:53:02;;;;;;;3.05;2.33;;;;;;;-4.63;98.51;101864.66;5052086;28;20048;-68
2021/12/12 02:55:37;;;;;;;8.05;4.88;;;;;;;-4.63;98.64;101869.72;5051690;28;20141;-67
2021/12/12 02:58:07;;;;;;;8.13;4.22;;;;;;;-4.57;98.34;101863.97;5051824;28;20075;-65
2021/12/12 03:00:40;;;;;;;4.70;3.20;;;;;;;-4.57;98.05;101863.97;5051833;28;20049;-65
2021/12/12 03:03:08;;;;;;;8.75;5.15;;;;;;;-4.66;98.70;101868.81;5052173;28;20045;-66
2021/12/12 03:05:47;;;;;;;3.35;2.42;;;;;;;-4.60;98.07;101866.41;5051773;28;20490;-66
2021/12/12 03:08:15;;;;;;;7.82;4.40;;;;;;;-4.67;98.25;101862.88;5051813;28;20132;-69
2021/12/12 03:10:47;;;;;;;4.10;2.95;;;;;;;-4.62;98.40;101860.47;5051714;28;20083;-68
2021/12/12 03:13:14;;;;;;;3.25;2.95;;;;;;;-4.62;98.12;101865.53;5051899;28;20056;-68
2021/12/12 03:15:43;;;;;;;6.97;4.38;;;;;;;-4.67;98.43;101867.97;5052089;28;20059;-69
2021/12/12 03:18:13;;;;;;;6.05;3.75;;;;;;;-4.61;98.58;101867.25;5051674;28;20072;-64
2021/12/12 03:20:43;;;;;;;10.30;5.20;;;;;;;-4.66;98.32;101864.59;5051872;28;20144;-66
2021/12/12 03:23:16;;;;;;;5.45;3.53;;;;;;;-4.61;98.30;101867.25;5051768;28;20045;-65
2021/12/12 03:25:47;;;;;;;7.95;4.07;;;;;;;-4.62;98.28;101861.31;5051767;28;20153;-65
2021/12/12 03:28:18;;;;;;;6.80;4.55;;;;;;;-4.67;97.76;101857.78;5051577;28;20589;-68
2021/12/12 03:30:47;;;;;;;8.30;5.45;;;;;;;-4.67;98.37;101859.50;5051699;28;20045;-65
2021/12/12 03:33:14;;;;;;;7.70;4.72;;;;;;;-4.57;97.85;101858.00;5051771;28;20048;-68
2021/12/12 03:35:41;;;;;;;8.13;5.53;;;;;;;-4.65;97.77;101853.63;5051703;28;20463;-65
2021/12/12 03:38:08;;;;;;;7.93;4.40;;;;;;;-4.60;98.09;101851.19;5051505;28;20073;-66
2021/12/12 03:40:39;;;;;;;8.30;4.63;;;;;;;-4.72;98.37;101849.22;5051645;28;20149;-68
2021/12/12 03:43:09;;;;;;;9.88;4.45;;;;;;;-4.67;98.22;101850.19;5051848;28;20072;-66
2021/12/12 03:45:37;;;;;;;4.47;3.35;;;;;;;-4.70;98.07;101854.31;5051489;28;20467;-66
2021/12/12 03:48:09;;;;;;;7.00;4.53;;;;;;;-4.68;98.18;101845.91;5051804;28;20045;-67
2021/12/12 03:50:38;;;;;;;5.25;3.28;;;;;;;-4.67;97.94;101856.94;5051410;28;20136;-65
2021/12/12 03:53:06;;;;;;;7.97;5.03;;;;;;;-4.69;98.13;101851.81;5051802;28;20045;-65
2021/12/12 03:55:34;;;;;;;3.60;2.97;;;;;;;-4.70;97.80;101851.75;5051512;28;20502;-63
2021/12/12 03:58:03;;;;;;;6.53;3.58;;;;;;;-4.72;98.35;101851.75;5051429;28;20477;-66
2021/12/12 04:00:36;;;;;;;8.77;4.93;;;;;;;-4.75;98.61;101849.13;5051548;28;20073;-65
2021/12/12 04:03:04;;;;;;;7.03;3.63;;;;;;;-4.73;98.86;101847.47;5051894;28;20128;-69
2021/12/12 04:05:31;;;;;;;12.35;4.63;;;;;;;-4.72;98.45;101846.66;5051842;28;20395;-66
2021/12/12 04:07:58;;;;;;;9.05;4.95;;;;;;;-4.76;98.46;101846.53;5051885;28;20076;-67
2021/12/12 04:10:26;;;;;;;7.25;4.28;;;;;;;-4.73;98.37;101851.69;5053859;28;20136;-65
2021/12/12 04:12:54;;;;;;;6.03;4.22;;;;;;;-4.73;98.64;101842.38;5056115;28;20079;-63
2021/12/12 04:15:22;;;;;;;11.27;4.30;;;;;;;-4.76;98.59;101832.16;5057087;28;20151;-66
2021/12/12 04:17:51;;;;;;;6.97;4.18;;;;;;;-4.71;98.26;101837.38;5056201;28;20059;-64
2021/12/12 04:20:22;;;;;;;4.03;2.70;;;;;;;-4.69;98.17;101831.50;5054619;28;20127;-66
2021/12/12 04:22:49;;;;;;;10.02;4.55;;;;;;;-4.71;98.10;101832.28;5054610;28;20136;-65
2021/12/12 04:25:16;;;;;;;4.38;3.58;;;;;;;-4.75;98.20;101831.34;5054188;28;20570;-67
2021/12/12 04:27:43;;;;;;;3.80;2.90;;;;;;;-4.70;97.97;101826.38;5054667;28;20146;-63
2021/12/12 04:30:12;;;;;;;6.70;4.20;;;;;;;-4.69;97.86;101826.41;5054501;28;20076;-64
2021/12/12 04:32:41;;;;;;;5.70;3.83;;;;;;;-4.68;98.10;101824.72;5054752;28;20110;-63
2021/12/12 04:35:13;;;;;;;6.72;3.83;;;;;;;-4.67;97.65;101824.78;5054180;28;20392;-64
2021/12/12 04:37:41;;;;;;;7.82;4.65;;;;;;;-4.69;98.32;101828.09;5054287;28;20499;-64
2021/12/12 04:40:11;;;;;;;6.35;3.28;;;;;;;-4.66;98.09;101830.72;5063722;22;20131;-72
2021/12/12 04:42:41;;;;;;;8.13;3.30;;;;;;;-4.66;97.76;101821.41;5054372;28;20068;-71
2021/12/12 04:45:18;;;;;;;6.20;4.63;;;;;;;-4.67;97.69;101822.25;5054583;28;20131;-71
2021/12/12 04:50:45;;;;;;;8.50;3.63;;;;;;;-4.70;98.00;101827.25;5054169;28;20506;-71
2021/12/12 04:53:18;;;;;;;10.85;4.32;;;;;;;-4.68;97.57;101819.66;5054140;28;20143;-71
2021/12/12 04:55:57;;;;;;;9.90;4.70;;;;;;;-4.67;97.88;101821.41;5054314;28;20049;-72
2021/12/12 04:58:34;;;;;;;6.82;4.38;;;;;;;-4.72;98.27;101823.81;5053811;28;20434;-70
2021/12/12 05:01:05;;;;;;;5.88;2.65;;;;;;;-4.67;97.74;101829.88;5053972;28;20049;-71
2021/12/12 05:03:37;;;;;;;4.47;2.30;;;;;;;-4.65;97.84;101825.69;5053920;28;20144;-71
2021/12/12 05:06:12;;;;;;;7.30;4.35;;;;;;;-4.70;97.77;101827.25;5053708;28;20052;-71
2021/12/12 05:08:45;;;;;;;8.05;3.95;;;;;;;-4.65;97.57;101825.69;5053657;28;20041;-70
2021/12/12 05:11:18;;;;;;;9.73;4.40;;;;;;;-4.63;97.85;101813.84;5053628;28;20041;-71
2021/12/12 05:13:52;;;;;;;9.93;5.00;;;;;;;-4.66;97.99;101818.03;5053716;28;20045;-72
2021/12/12 05:16:26;;;;;;;4.35;1.55;;;;;;;-4.63;98.09;101823.16;5053959;28;20055;-72
2021/12/12 05:19:03;;;;;;;8.50;4.35;;;;;;;-4.66;97.88;101818.88;5053708;28;20041;-71
2021/12/12 05:21:34;;;;;;;4.97;3.10;;;;;;;-4.64;97.97;101816.38;5053522;28;20044;-72
2021/12/12 05:24:07;;;;;;;10.05;6.03;;;;;;;-4.63;98.23;101813.00;5053666;28;20131;-72
2021/12/12 05:26:37;;;;;;;8.63;5.07;;;;;;;-4.67;98.03;101812.09;5053560;28;20467;-72
2021/12/12 05:29:11;;;;;;;6.20;4.13;;;;;;;-4.67;97.95;101811.22;5053246;28;20073;-72
2021/12/12 05:31:38;;;;;;;4.32;3.03;;;;;;;-4.70;97.59;101806.94;5053129;28;20136;-72
2021/12/12 05:34:06;;;;;;;5.80;3.35;;;;;;;-4.72;97.94;101811.13;5053080;28;20045;-72
2021/12/12 05:36:36;;;;;;;7.18;4.22;;;;;;;-4.71;97.72;101800.13;5053219;28;20136;-73
2021/12/12 05:39:05;;;;;;;6.75;4.53;;;;;;;-4.67;97.73;101799.38;5053273;28;20069;-72
2021/12/12 05:41:33;;;;;;;9.55;4.53;;;;;;;-4.68;97.79;101799.34;5053506;28;20131;-73
2021/12/12 05:44:01;;;;;;;9.40;4.93;;;;;;;-4.66;97.35;101802.78;5053382;28;20139;-72
2021/12/12 05:46:28;;;;;;;7.65;3.45;;;;;;;-4.65;97.76;101794.31;5053262;28;20529;-72
2021/12/12 05:48:56;;;;;;;5.55;3.40;;;;;;;-4.61;97.47;101793.59;5053010;28;20048;-71
2021/12/12 05:51:24;;;;;;;7.15;4.05;;;;;;;-4.62;97.66;101794.44;5053095;28;20127;-72
2021/12/12 05:53:55;;;;;;;3.97;2.67;;;;;;;-4.64;97.49;101783.38;5053327;28;20045;-72
2021/12/12 05:56:23;;;;;;;6.82;4.53;;;;;;;-4.67;97.49;101785.84;5052848;28;20125;-72
2021/12/12 05:58:52;;;;;;;12.10;6.00;;;;;;;-4.73;98.18;101783.13;5052844;28;20063;-72
2021/12/12 06:01:20;;;;;;;10.30;5.45;;;;;;;-4.68;97.61;101777.34;5052846;28;20075;-72
2021/12/12 06:03:48;;;;;;;8.80;3.97;;;;;;;-4.66;98.01;101790.09;5052833;28;20045;-72
2021/12/12 06:06:20;;;;;;;4.93;3.47;;;;;;;-4.63;98.06;101785.06;5052956;28;20049;-71
2021/12/12 06:08:49;;;;;;;1.55;1.42;;;;;;;-4.63;97.65;101787.59;5052828;28;20049;-72
2021/12/12 06:11:22;;;;;;;7.35;4.60;;;;;;;-4.70;97.72;101795.91;5052531;28;20056;-71
2021/12/12 06:13:49;;;;;;;6.00;4.15;;;;;;;-4.66;98.24;101803.63;5052807;28;20041;-71
2021/12/12 06:16:19;;;;;;;4.95;3.42;;;;;;;-4.68;97.85;101804.41;5052503;28;20139;-72
2021/12/12 06:18:48;;;;;;;5.03;3.17;;;;;;;-4.68;97.73;101802.72;5052618;28;20159;-72
2021/12/12 06:21:16;;;;;;;7.47;4.15;;;;;;;-4.69;97.47;101811.19;5052612;28;20132;-72
2021/12/12 06:23:43;;;;;;;3.05;2.67;;;;;;;-4.68;97.81;101823.03;5052627;28;20133;-70
2021/12/12 06:26:10;;;;;;;5.07;3.78;;;;;;;-4.70;97.79;101829.78;5052445;28;20080;-71
2021/12/12 06:28:42;;;;;;;9.63;4.88;;;;;;;-4.69;97.76;101818.81;5052812;28;20048;-72
2021/12/12 06:31:10;;;;;;;4.68;3.20;;;;;;;-4.68;97.86;101824.72;5052503;28;20127;-71
2021/12/12 06:33:39;;;;;;;5.47;3.67;;;;;;;-4.68;97.87;101823.03;5051986;28;20140;-71
2021/12/12 06:36:07;;;;;;;6.78;4.50;;;;;;;-4.72;98.09;101835.66;5052409;28;20049;-72
2021/12/12 06:38:34;;;;;;;9.40;5.45;;;;;;;-4.70;97.99;101826.38;5052243;28;20483;-71
2021/12/12 06:41:01;;;;;;;;;;;;;;;-4.62;97.89;101824.91;5062362;22;20133;-65
2021/12/12 06:43:28;;;;;;;3.50;2.70;;;;;;;-4.67;97.61;101839.16;5052097;28;19921;-65
2021/12/12 06:45:57;;;;;;;;;;;;;;;-4.68;97.94;101830.66;5052862;28;20129;-65
2021/12/12 06:48:25;;;;;;;6.90;4.72;;;;;;;-4.65;97.87;101835.84;5052236;28;20062;-65
2021/12/12 06:50:54;;;;;;;6.72;3.65;;;;;;;-4.60;97.69;101831.75;5052058;28;20041;-64
2021/12/12 06:53:25;;;;;;;8.43;4.47;;;;;;;-4.57;97.22;101827.53;5051955;28;20470;-65
2021/12/12 06:55:53;;;;;;;6.03;3.75;;;;;;;-4.58;97.30;101828.38;5052025;28;20140;-64
2021/12/12 06:58:21;;;;;;;8.73;4.72;;;;;;;-4.62;97.45;101830.84;5052006;28;20129;-66
2021/12/12 07:00:55;;;;;;;12.63;4.40;;;;;;;-4.67;97.34;101831.56;5051987;28;20131;-67
2021/12/12 07:03:24;;;;;;;5.72;3.95;;;;;;;-4.63;97.66;101844.34;5052339;28;20059;-65
2021/12/12 07:05:51;;;;;;;5.47;3.22;;;;;;;-4.57;97.50;101830.97;5051945;28;20140;-69
2021/12/12 07:08:20;;;;;;;5.65;3.67;;;;;;;-4.56;97.04;101836.88;5052133;28;20092;-64
2021/12/12 07:10:48;;;;;;;5.38;2.88;;;;;;;-4.55;96.87;101836.91;5052324;28;20076;-66
2021/12/12 07:13:16;;;;;;;7.97;4.72;;;;;;;-4.56;97.37;101840.28;5051862;28;20095;-67
2021/12/12 07:15:46;;;;;;;10.30;5.63;;;;;;;-4.58;96.91;101836.84;5051886;28;20410;-67
2021/12/12 07:18:15;;;;;;;8.38;4.32;;;;;;;-4.54;97.15;101841.19;5051922;28;20056;-67
2021/12/12 07:20:47;;;;;;;7.95;3.53;;;;;;;-4.52;96.82;101836.13;5051846;28;20041;-63
2021/12/12 07:23:15;;;;;;;6.20;2.78;;;;;;;-4.53;97.23;101837.81;5051604;28;20051;-66
2021/12/12 07:25:44;;;;;;;4.35;2.58;;;;;;;-4.54;96.98;101835.25;5051915;28;20080;-64
2021/12/12 07:28:12;;;;;;;8.15;4.10;;;;;;;-4.50;97.34;101837.03;5051977;28;20479;-65
2021/12/12 07:30:38;;;;;;;;;;;;;;;-4.50;96.81;101834.47;5052328;28;20084;-66
2021/12/12 07:33:06;;;;;;;9.50;4.40;;;;;;;-4.53;97.25;101839.50;5051819;28;20015;-71
2021/12/12 07:35:34;;;;;;;;;;;;;;;-4.49;96.89;101839.63;5052630;28;20055;-64
2021/12/12 07:38:03;;;;;;;2.72;2.15;;;;;;;-4.46;97.25;101836.28;5052484;28;19994;-66
2021/12/12 07:40:30;;;;;;;6.55;3.90;;;;;;;-4.45;96.88;101831.22;5052542;28;20140;-62
2021/12/12 07:42:58;;;;;;;8.98;4.82;;;;;;;-4.44;96.68;101827.03;5051630;28;20128;-63
2021/12/12 07:45:25;;;;;;;4.35;3.22;;;;;;;-4.45;96.86;101826.16;5053972;28;20140;-65
2021/12/12 07:47:53;;;;;;;;;;;;;;;-4.45;97.03;101826.16;5056223;28;20458;-69
2021/12/12 07:50:23;;;;;;;6.38;3.28;;;;;;;-4.46;97.23;101828.66;5055293;28;20031;-65
2021/12/12 07:52:52;;;;;;;6.85;3.97;;;;;;;-4.48;96.60;101831.16;5055203;28;20499;-67
2021/12/12 07:55:21;;;;;;;4.07;3.13;;;;;;;-4.46;97.19;101826.97;5055113;28;20152;-65
2021/12/12 07:57:48;;;;;;;6.75;4.32;;;;;;;-4.42;96.85;101821.16;5055390;28;20068;-64
2021/12/12 08:00:21;;;;;;;8.93;4.95;;;;;;;-4.44;97.09;101832.09;5055131;28;20135;-63
2021/12/12 08:02:51;;;;;;;6.95;3.78;;;;;;;-4.46;96.84;101831.22;5055304;28;20060;-63
2021/12/12 08:05:20;;;;;;;4.18;3.03;;;;;;;-4.43;96.93;101834.66;5055141;28;20554;-64
2021/12/12 08:07:48;;;;;;;10.77;5.60;;;;;;;-4.42;97.16;101827.91;5055073;28;20072;-64
2021/12/12 08:10:17;;;;;;;10.38;5.60;;;;;;;-4.44;96.96;101835.50;5055206;28;20476;-63
2021/12/12 08:12:46;;;;;;;14.75;5.82;;;;;;;-4.40;96.75;101827.09;5055205;28;20053;-63
2021/12/12 08:15:14;;;;;;;7.05;4.38;;;;;;;-4.34;96.75;101828.97;5055207;28;20151;-63
2021/12/12 08:17:43;;;;;;;10.27;5.10;;;;;;;-4.34;96.63;101823.88;5055555;28;20041;-62
2021/12/12 08:20:13;;;;;;;9.23;5.18;;;;;;;-4.42;96.19;101823.69;5054892;28;20045;-62
2021/12/12 08:22:41;;;;;;;9.65;5.47;;;;;;;-4.43;96.63;101831.28;5055281;28;20487;-64
2021/12/12 08:25:12;;;;;;;10.48;5.10;;;;;;;-4.35;96.59;101828.91;5054855;28;20132;-64
2021/12/12 08:27:40;;;;;;;11.48;5.55;;;;;;;-4.34;96.83;101831.50;5054706;28;20509;-64
2021/12/12 08:30:12;;;;;;;10.10;4.70;;;;;;;-4.36;96.80;101825.53;5054740;28;20140;-67
2021/12/12 08:32:39;;;;;;;11.43;4.55;;;;;;;-4.36;96.99;101820.44;5054503;28;20517;-63
2021/12/12 08:35:08;;;;;;;11.05;5.57;;;;;;;-4.37;96.51;101816.16;5054201;28;20083;-63
2021/12/12 08:37:36;;;;;;;10.52;5.22;;;;;;;-4.43;96.78;101816.88;5054291;28;20080;-62
2021/12/12 08:40:05;;;;;;;9.85;5.53;;;;;;;-4.39;96.89;101810.22;5054509;28;20053;-62
2021/12/12 08:42:32;;;;;;;10.98;5.45;;;;;;;-4.38;96.56;101800.06;5054280;28;20051;-63
2021/12/12 08:45:00;;;;;;;;;;;;;;;-4.40;96.39;101804.25;5054748;28;20161;-65
2021/12/12 08:47:29;;;;;;;8.30;5.03;;;;;;;-4.42;96.64;101805.03;5054399;28;19927;-64
2021/12/12 08:49:56;;;;;;;6.22;4.10;;;;;;;-4.46;96.72;101803.25;5054256;28;20049;-63
2021/12/12 08:52:29;;;;;;;5.32;3.05;;;;;;;-4.41;96.50;101801.69;5054256;28;20045;-65
2021/12/12 08:54:57;;;;;;;9.98;5.13;;;;;;;-4.42;97.09;101799.94;5053875;28;20060;-64
2021/12/12 08:57:33;;;;;;;;;;;;;;;-4.41;96.58;101796.59;5054551;28;20515;-66
2021/12/12 09:00:01;;;;;;;3.72;2.38;;;;;;;-4.40;96.87;101803.38;5053694;28;19927;-64
2021/12/12 09:02:30;;;;;;;9.63;4.72;;;;;;;-4.42;96.81;101799.94;5053830;28;20143;-64
2021/12/12 09:05:03;;;;;;;5.43;3.22;;;;;;;-4.41;97.20;101801.69;5053917;28;20080;-69
2021/12/12 09:07:35;;;;;;;4.82;3.28;;;;;;;-4.49;96.78;101803.19;5053878;28;20136;-74
2021/12/12 09:10:15;;;;;;;6.75;4.05;;;;;;;-4.50;96.89;101806.53;5053801;28;20045;-75
2021/12/12 09:12:46;;;;;;;6.35;4.07;;;;;;;-4.49;97.01;101805.72;5053930;28;20096;-74
2021/12/12 09:15:18;;;;;;;11.27;6.05;;;;;;;-4.49;97.55;101810.81;5054153;28;20064;-72
2021/12/12 09:17:50;;;;;;;8.40;4.75;;;;;;;-4.49;97.40;101809.13;5053915;28;20577;-73
2021/12/12 09:20:23;;;;;;;9.02;4.43;;;;;;;-4.48;97.04;101810.84;5053659;28;20045;-72
2021/12/12 09:22:58;;;;;;;5.25;3.60;;;;;;;-4.47;97.19;101825.28;5053440;28;20403;-71
2021/12/12 09:25:35;;;;;;;6.13;3.63;;;;;;;-4.47;97.34;101819.31;5053691;28;20503;-65
2021/12/12 09:28:08;;;;;;;2.92;2.40;;;;;;;-4.41;96.96;101824.56;5053639;28;20128;-69
2021/12/12 09:30:37;;;;;;;8.48;4.25;;;;;;;-4.51;97.16;101827.69;5053434;28;20514;-66
2021/12/12 09:33:12;;;;;;;9.68;4.60;;;;;;;-4.50;97.47;101832.78;5053689;28;20128;-62
2021/12/12 09:35:44;;;;;;;5.38;2.97;;;;;;;-4.44;97.27;101832.97;5053390;28;20053;-64
2021/12/12 09:38:16;;;;;;;10.52;5.15;;;;;;;-4.42;96.98;101827.91;5053374;28;20045;-65
2021/12/12 09:41:03;;;;;;;5.05;3.10;;;;;;;-4.41;97.04;101835.56;5053518;28;20080;-72
2021/12/12 09:43:43;;;;;;;7.07;3.53;;;;;;;-4.39;97.04;101835.63;5053353;28;20049;-76
2021/12/12 09:46:28;;;;;;;10.15;4.35;;;;;;;-4.35;97.00;101834.00;5053615;28;20057;-66
2021/12/12 09:52:33;;;;;;;10.68;5.82;;;;;;;-4.37;97.35;101823.78;5053177;28;20055;-72
2021/12/12 09:55:04;;;;;;;3.53;2.30;;;;;;;-4.30;97.05;101828.19;5052892;28;20048;-72
2021/12/12 09:57:38;;;;;;;10.73;5.53;;;;;;;-4.32;97.29;101829.84;5052779;28;20395;-71
2021/12/12 10:00:13;;;;;;;11.73;5.35;;;;;;;-4.27;96.96;101817.25;5052969;28;20128;-73
2021/12/12 10:02:58;;;;;;;9.95;5.03;;;;;;;-4.24;96.77;101830.00;5052949;28;20136;-72
2021/12/12 10:05:36;;;;;;;7.75;5.00;;;;;;;-4.26;97.05;101830.00;5052786;28;20059;-72
2021/12/12 10:08:14;;;;;;;7.43;4.43;;;;;;;-4.28;96.76;101826.56;5052608;28;20462;-73
2021/12/12 10:10:48;;;;;;;8.32;5.32;;;;;;;-4.25;97.18;101823.22;5053213;28;20060;-72
2021/12/12 10:13:26;;;;;;;8.43;5.18;;;;;;;-4.19;96.85;101825.88;5052431;28;20147;-71
2021/12/12 10:16:00;;;;;;;11.05;5.78;;;;;;;-4.20;96.52;101830.13;5050790;28;20120;-72
2021/12/12 10:18:41;;;;;;;13.98;6.47;;;;;;;-4.23;96.67;101830.06;5052907;28;20128;-73
2021/12/12 10:21:14;;;;;;;5.97;3.35;;;;;;;-4.22;96.70;101826.69;5053079;28;20048;-72
2021/12/12 10:24:03;;;;;;;6.28;3.67;;;;;;;-4.24;96.51;101825.81;5052747;28;20049;-62
2021/12/12 10:26:36;;;;;;;9.07;5.28;;;;;;;-4.22;96.60;101830.91;5052769;28;20060;-63
2021/12/12 10:29:09;;;;;;;7.40;4.65;;;;;;;-4.25;96.93;101836.78;5052731;28;20045;-64
2021/12/12 10:31:42;;;;;;;9.20;5.38;;;;;;;-4.22;96.92;101836.84;5052143;28;20079;-65
2021/12/12 10:34:12;;;;;;;10.77;5.43;;;;;;;-4.20;96.69;101842.81;5052302;28;20045;-65
2021/12/12 10:36:47;;;;;;;9.13;5.72;;;;;;;-4.14;97.15;101839.56;5052174;28;20049;-65
2021/12/12 10:39:38;;;;;;;10.43;6.20;;;;;;;-4.14;96.47;101843.78;5052384;28;20135;-64
2021/12/12 10:42:09;;;;;;;9.00;4.93;;;;;;;-4.12;96.82;101850.63;5010309;28;20057;-76
2021/12/12 10:44:41;;;;;;;7.85;4.80;;;;;;;-4.15;96.71;101842.94;5012418;28;20176;-69
2021/12/12 10:47:13;;;;;;;11.10;3.95;;;;;;;-4.13;96.49;101843.84;5012409;28;20056;-70
2021/12/12 10:49:52;;;;;;;6.43;3.97;;;;;;;-4.13;96.83;101831.13;5009079;28;20128;-71
2021/12/12 10:52:31;;;;;;;9.63;5.25;;;;;;;-4.13;96.62;101830.28;5012577;28;20401;-72
2021/12/12 10:55:01;;;;;;;8.00;4.80;;;;;;;-4.09;96.64;101837.97;5012286;28;20072;-72
2021/12/12 10:57:33;;;;;;;9.38;5.57;;;;;;;-4.10;97.05;101830.34;5012265;28;20081;-72
2021/12/12 11:00:09;;;;;;;8.02;4.68;;;;;;;-4.08;96.27;101831.25;5012093;28;20105;-70
2021/12/12 11:02:41;;;;;;;11.23;5.25;;;;;;;-4.08;96.32;101827.00;5012308;28;20480;-71
2021/12/12 11:05:14;;;;;;;8.68;4.97;;;;;;;-4.10;96.39;101826.09;5007630;28;20051;-70
2021/12/12 11:07:54;;;;;;;8.25;4.72;;;;;;;-4.03;96.40;101827.13;4992890;28;20767;-71
2021/12/12 11:10:25;;;;;;;7.93;5.07;;;;;;;-4.05;96.18;101823.69;4992739;28;20474;-71
2021/12/12 11:12:56;;;;;;;10.07;5.38;;;;;;;-4.05;96.02;101823.69;4992755;28;20108;-72
2021/12/12 11:15:38;;;;;;;5.70;3.90;;;;;;;-4.06;96.23;101834.66;4992755;28;20046;-72
2021/12/12 11:18:09;;;;;;;9.13;5.85;;;;;;;-4.17;96.03;101829.34;4992748;28;20081;-72
2021/12/12 11:20:39;;;;;;;9.63;5.22;;;;;;;-4.10;96.33;101822.72;4996186;28;20141;-71
2021/12/12 11:23:14;;;;;;;10.55;5.93;;;;;;;-4.08;96.75;101823.63;5010351;28;20128;-73
2021/12/12 11:25:44;;;;;;;9.30;5.60;;;;;;;-4.01;96.67;101820.34;5016301;28;20069;-72
2021/12/12 11:28:14;;;;;;;9.80;5.10;;;;;;;-3.97;96.07;101817.06;5016253;28;20136;-73
2021/12/12 11:30:46;;;;;;;9.57;5.88;;;;;;;-4.05;96.39;101813.50;5015925;28;20050;-70
2021/12/12 11:33:16;;;;;;;9.50;5.60;;;;;;;-3.97;95.99;101805.22;5015869;28;20046;-71
2021/12/12 11:35:49;;;;;;;9.68;5.55;;;;;;;-3.93;95.72;101803.59;5015687;28;20141;-72
2021/12/12 11:38:27;;;;;;;9.43;5.25;;;;;;;-3.96;96.12;101795.88;5015846;28;20054;-72
2021/12/12 11:41:00;;;;;;;7.25;4.60;;;;;;;-3.95;95.93;101795.09;5051441;22;20107;-67
2021/12/12 11:43:35;;;;;;;8.25;5.28;;;;;;;-4.02;96.15;101794.09;5055276;28;20049;-66
2021/12/12 11:46:06;;;;;;;9.32;4.65;;;;;;;-4.02;95.86;101793.22;5055075;28;20073;-63
2021/12/12 11:48:48;;;;;;;9.50;4.97;;;;;;;-4.07;96.30;101794.81;5053049;28;20395;-66
2021/12/12 11:51:21;;;;;;;10.05;6.22;;;;;;;-4.15;96.38;101794.66;5054821;28;20087;-71
2021/12/12 11:53:56;;;;;;;9.65;5.43;;;;;;;-4.13;96.66;101800.63;5055078;28;20144;-66
2021/12/12 11:56:27;;;;;;;8.82;5.53;;;;;;;-4.08;96.87;101793.97;5055335;28;20124;-64
2021/12/12 11:59:03;;;;;;;9.32;5.40;;;;;;;-4.12;96.79;101804.03;5053342;28;20412;-70